sensor_id;sensor_type;location;lat;lon;timestamp;temperature;humidity
72952;HTU21D;61102;51.956;5.878;2023-06-22T00:01:19;23.80;49.53
72952;HTU21D;61102;51.956;5.878;2023-06-22T00:03:47;23.77;49.44
72952;HTU21D;61102;51.956;5.878;2023-06-22T00:06:13;23.73;49.38
72952;HTU21D;61102;51.956;5.878;2023-06-22T00:08:39;23.74;49.33
72952;HTU21D;61102;51.956;5.878;2023-06-22T00:11:06;23.72;49.20
72952;HTU21D;61102;51.956;5.878;2023-06-22T00:13:32;23.71;49.20
72952;HTU21D;61102;51.956;5.878;2023-06-22T00:15:58;23.68;49.10
72952;HTU21D;61102;51.956;5.878;2023-06-22T00:18:24;23.67;49.05
72952;HTU21D;61102;51.956;5.878;2023-06-22T00:20:56;23.64;49.15
72952;HTU21D;61102;51.956;5.878;2023-06-22T00:23:23;23.62;48.97
72952;HTU21D;61102;51.956;5.878;2023-06-22T00:25:50;23.62;48.99
72952;HTU21D;61102;51.956;5.878;2023-06-22T00:28:16;23.57;49.02
72952;HTU21D;61102;51.956;5.878;2023-06-22T00:30:42;23.56;49.07
72952;HTU21D;61102;51.956;5.878;2023-06-22T00:33:08;23.51;49.11
72952;HTU21D;61102;51.956;5.878;2023-06-22T00:35:34;23.49;49.21
72952;HTU21D;61102;51.956;5.878;2023-06-22T00:38:01;23.45;49.40
72952;HTU21D;61102;51.956;5.878;2023-06-22T00:40:28;23.42;49.54
72952;HTU21D;61102;51.956;5.878;2023-06-22T00:42:55;23.41;49.58
72952;HTU21D;61102;51.956;5.878;2023-06-22T00:45:22;23.38;49.63
72952;HTU21D;61102;51.956;5.878;2023-06-22T00:47:54;23.35;49.73
72952;HTU21D;61102;51.956;5.878;2023-06-22T00:50:23;23.32;49.78
72952;HTU21D;61102;51.956;5.878;2023-06-22T00:52:56;23.30;49.95
72952;HTU21D;61102;51.956;5.878;2023-06-22T00:55:23;23.26;49.89
72952;HTU21D;61102;51.956;5.878;2023-06-22T00:57:49;23.25;49.98
72952;HTU21D;61102;51.956;5.878;2023-06-22T01:00:16;23.22;49.97
72952;HTU21D;61102;51.956;5.878;2023-06-22T01:02:46;23.18;50.00
72952;HTU21D;61102;51.956;5.878;2023-06-22T01:05:17;23.18;50.08
72952;HTU21D;61102;51.956;5.878;2023-06-22T01:10:48;23.15;50.17
72952;HTU21D;61102;51.956;5.878;2023-06-22T01:13:40;23.13;50.29
72952;HTU21D;61102;51.956;5.878;2023-06-22T01:16:37;23.11;50.38
72952;HTU21D;61102;51.956;5.878;2023-06-22T01:21:58;22.99;50.60
72952;HTU21D;61102;51.956;5.878;2023-06-22T01:24:32;22.96;50.83
72952;HTU21D;61102;51.956;5.878;2023-06-22T01:29:40;22.91;50.85
72952;HTU21D;61102;51.956;5.878;2023-06-22T01:32:09;22.87;50.91
72952;HTU21D;61102;51.956;5.878;2023-06-22T01:34:40;22.85;51.23
72952;HTU21D;61102;51.956;5.878;2023-06-22T01:37:07;22.83;51.27
72952;HTU21D;61102;51.956;5.878;2023-06-22T01:39:33;23.26;50.02
72952;HTU21D;61102;51.956;5.878;2023-06-22T01:42:00;22.94;50.58
72952;HTU21D;61102;51.956;5.878;2023-06-22T01:44:27;23.30;49.56
72952;HTU21D;61102;51.956;5.878;2023-06-22T01:46:53;23.41;49.21
72952;HTU21D;61102;51.956;5.878;2023-06-22T01:49:20;22.97;50.25
72952;HTU21D;61102;51.956;5.878;2023-06-22T01:51:46;22.81;50.76
72952;HTU21D;61102;51.956;5.878;2023-06-22T01:54:12;22.75;51.01
72952;HTU21D;61102;51.956;5.878;2023-06-22T01:56:44;22.69;51.15
72952;HTU21D;61102;51.956;5.878;2023-06-22T02:02:07;22.68;51.23
72952;HTU21D;61102;51.956;5.878;2023-06-22T02:04:46;22.67;51.03
72952;HTU21D;61102;51.956;5.878;2023-06-22T02:07:15;22.67;51.10
72952;HTU21D;61102;51.956;5.878;2023-06-22T02:09:44;22.65;51.08
72952;HTU21D;61102;51.956;5.878;2023-06-22T02:12:12;22.63;51.08
72952;HTU21D;61102;51.956;5.878;2023-06-22T02:14:40;22.65;50.88
72952;HTU21D;61102;51.956;5.878;2023-06-22T02:17:08;22.62;51.00
72952;HTU21D;61102;51.956;5.878;2023-06-22T02:19:40;22.63;51.11
72952;HTU21D;61102;51.956;5.878;2023-06-22T02:22:06;22.64;51.04
72952;HTU21D;61102;51.956;5.878;2023-06-22T02:24:33;22.61;51.01
72952;HTU21D;61102;51.956;5.878;2023-06-22T02:27:00;22.61;50.99
72952;HTU21D;61102;51.956;5.878;2023-06-22T02:29:27;22.63;51.01
72952;HTU21D;61102;51.956;5.878;2023-06-22T02:31:54;22.60;51.05
72952;HTU21D;61102;51.956;5.878;2023-06-22T02:34:21;23.05;50.06
72952;HTU21D;61102;51.956;5.878;2023-06-22T02:36:48;22.67;50.93
72952;HTU21D;61102;51.956;5.878;2023-06-22T02:39:21;22.57;51.40
72952;HTU21D;61102;51.956;5.878;2023-06-22T02:41:53;22.51;51.65
72952;HTU21D;61102;51.956;5.878;2023-06-22T02:44:22;22.49;51.67
72952;HTU21D;61102;51.956;5.878;2023-06-22T02:46:48;22.46;51.77
72952;HTU21D;61102;51.956;5.878;2023-06-22T02:49:15;22.44;51.75
72952;HTU21D;61102;51.956;5.878;2023-06-22T02:51:45;22.41;51.87
72952;HTU21D;61102;51.956;5.878;2023-06-22T02:54:12;22.44;51.75
72952;HTU21D;61102;51.956;5.878;2023-06-22T02:56:38;22.42;51.80
72952;HTU21D;61102;51.956;5.878;2023-06-22T02:59:06;22.42;51.82
72952;HTU21D;61102;51.956;5.878;2023-06-22T03:01:37;22.40;51.88
72952;HTU21D;61102;51.956;5.878;2023-06-22T03:04:07;22.37;52.18
72952;HTU21D;61102;51.956;5.878;2023-06-22T03:06:34;22.32;52.49
72952;HTU21D;61102;51.956;5.878;2023-06-22T03:09:03;22.27;52.88
72952;HTU21D;61102;51.956;5.878;2023-06-22T03:11:31;22.25;53.14
72952;HTU21D;61102;51.956;5.878;2023-06-22T03:13:59;22.24;53.09
72952;HTU21D;61102;51.956;5.878;2023-06-22T03:16:25;22.24;52.91
72952;HTU21D;61102;51.956;5.878;2023-06-22T03:18:52;22.70;51.46
72952;HTU21D;61102;51.956;5.878;2023-06-22T03:21:28;22.41;52.32
72952;HTU21D;61102;51.956;5.878;2023-06-22T03:23:54;22.34;52.53
72952;HTU21D;61102;51.956;5.878;2023-06-22T03:26:21;22.28;52.59
72952;HTU21D;61102;51.956;5.878;2023-06-22T03:28:49;22.25;52.65
72952;HTU21D;61102;51.956;5.878;2023-06-22T03:31:15;22.24;52.76
72952;HTU21D;61102;51.956;5.878;2023-06-22T03:33:41;22.22;53.08
72952;HTU21D;61102;51.956;5.878;2023-06-22T03:36:08;22.20;53.17
72952;HTU21D;61102;51.956;5.878;2023-06-22T03:38:34;22.17;53.51
72952;HTU21D;61102;51.956;5.878;2023-06-22T03:41:00;22.14;53.66
72952;HTU21D;61102;51.956;5.878;2023-06-22T03:43:28;22.16;53.70
72952;HTU21D;61102;51.956;5.878;2023-06-22T03:45:55;22.60;52.40
72952;HTU21D;61102;51.956;5.878;2023-06-22T03:48:21;22.28;53.21
72952;HTU21D;61102;51.956;5.878;2023-06-22T03:50:47;22.18;53.64
72952;HTU21D;61102;51.956;5.878;2023-06-22T03:53:14;22.16;53.81
72952;HTU21D;61102;51.956;5.878;2023-06-22T03:55:51;22.13;54.09
72952;HTU21D;61102;51.956;5.878;2023-06-22T03:58:17;22.11;54.20
72952;HTU21D;61102;51.956;5.878;2023-06-22T04:00:51;22.09;54.49
72952;HTU21D;61102;51.956;5.878;2023-06-22T04:03:18;22.09;54.59
72952;HTU21D;61102;51.956;5.878;2023-06-22T04:05:45;22.09;54.68
72952;HTU21D;61102;51.956;5.878;2023-06-22T04:08:13;22.08;54.81
72952;HTU21D;61102;51.956;5.878;2023-06-22T04:10:39;22.12;54.91
72952;HTU21D;61102;51.956;5.878;2023-06-22T04:13:05;22.13;54.94
72952;HTU21D;61102;51.956;5.878;2023-06-22T04:15:31;22.16;55.19
72952;HTU21D;61102;51.956;5.878;2023-06-22T04:17:57;22.20;55.01
72952;HTU21D;61102;51.956;5.878;2023-06-22T04:20:24;22.25;55.08
72952;HTU21D;61102;51.956;5.878;2023-06-22T04:22:53;22.27;55.19
72952;HTU21D;61102;51.956;5.878;2023-06-22T04:25:20;22.37;55.00
72952;HTU21D;61102;51.956;5.878;2023-06-22T04:27:47;22.46;55.14
72952;HTU21D;61102;51.956;5.878;2023-06-22T04:30:13;22.56;54.96
72952;HTU21D;61102;51.956;5.878;2023-06-22T04:32:43;22.67;54.92
72952;HTU21D;61102;51.956;5.878;2023-06-22T04:35:10;22.79;54.81
72952;HTU21D;61102;51.956;5.878;2023-06-22T04:37:36;22.93;54.69
72952;HTU21D;61102;51.956;5.878;2023-06-22T04:40:03;23.01;54.71
72952;HTU21D;61102;51.956;5.878;2023-06-22T04:42:31;23.11;54.62
72952;HTU21D;61102;51.956;5.878;2023-06-22T04:44:57;23.20;54.54
72952;HTU21D;61102;51.956;5.878;2023-06-22T04:47:23;23.30;54.42
72952;HTU21D;61102;51.956;5.878;2023-06-22T04:49:49;23.36;54.32
72952;HTU21D;61102;51.956;5.878;2023-06-22T04:52:16;23.40;54.23
72952;HTU21D;61102;51.956;5.878;2023-06-22T04:54:46;23.42;54.30
72952;HTU21D;61102;51.956;5.878;2023-06-22T04:57:16;23.42;54.33
72952;HTU21D;61102;51.956;5.878;2023-06-22T04:59:42;23.43;54.39
72952;HTU21D;61102;51.956;5.878;2023-06-22T05:02:08;23.51;54.36
72952;HTU21D;61102;51.956;5.878;2023-06-22T05:04:35;23.58;54.26
72952;HTU21D;61102;51.956;5.878;2023-06-22T05:07:04;23.64;54.26
72952;HTU21D;61102;51.956;5.878;2023-06-22T05:09:30;23.80;54.01
72952;HTU21D;61102;51.956;5.878;2023-06-22T05:11:57;23.92;53.74
72952;HTU21D;61102;51.956;5.878;2023-06-22T05:14:23;24.02;53.67
72952;HTU21D;61102;51.956;5.878;2023-06-22T05:16:49;24.15;53.40
72952;HTU21D;61102;51.956;5.878;2023-06-22T05:19:17;24.21;53.22
72952;HTU21D;61102;51.956;5.878;2023-06-22T05:21:44;24.20;53.14
72952;HTU21D;61102;51.956;5.878;2023-06-22T05:24:10;24.21;53.07
72952;HTU21D;61102;51.956;5.878;2023-06-22T05:26:36;24.23;53.07
72952;HTU21D;61102;51.956;5.878;2023-06-22T05:29:02;24.26;53.07
72952;HTU21D;61102;51.956;5.878;2023-06-22T05:31:29;24.34;52.93
72952;HTU21D;61102;51.956;5.878;2023-06-22T05:33:55;24.43;52.73
72952;HTU21D;61102;51.956;5.878;2023-06-22T05:36:22;24.54;52.53
72952;HTU21D;61102;51.956;5.878;2023-06-22T05:38:56;24.65;52.42
72952;HTU21D;61102;51.956;5.878;2023-06-22T05:41:23;24.83;52.07
72952;HTU21D;61102;51.956;5.878;2023-06-22T05:43:49;24.94;51.48
72952;HTU21D;61102;51.956;5.878;2023-06-22T05:46:15;24.97;51.38
72952;HTU21D;61102;51.956;5.878;2023-06-22T05:48:42;24.97;51.33
72952;HTU21D;61102;51.956;5.878;2023-06-22T05:51:08;24.95;51.24
72952;HTU21D;61102;51.956;5.878;2023-06-22T05:53:34;25.08;51.19
72952;HTU21D;61102;51.956;5.878;2023-06-22T05:56:00;25.24;51.03
72952;HTU21D;61102;51.956;5.878;2023-06-22T05:58:26;25.37;50.53
72952;HTU21D;61102;51.956;5.878;2023-06-22T06:00:52;25.50;50.27
72952;HTU21D;61102;51.956;5.878;2023-06-22T06:03:18;25.61;50.05
72952;HTU21D;61102;51.956;5.878;2023-06-22T06:05:44;25.71;49.79
72952;HTU21D;61102;51.956;5.878;2023-06-22T06:08:11;25.82;49.45
72952;HTU21D;61102;51.956;5.878;2023-06-22T06:10:38;25.97;49.37
72952;HTU21D;61102;51.956;5.878;2023-06-22T06:13:04;26.10;49.05
72952;HTU21D;61102;51.956;5.878;2023-06-22T06:15:34;26.19;48.91
72952;HTU21D;61102;51.956;5.878;2023-06-22T06:18:00;26.33;48.41
72952;HTU21D;61102;51.956;5.878;2023-06-22T06:20:28;26.48;48.30
72952;HTU21D;61102;51.956;5.878;2023-06-22T06:22:54;26.54;48.02
72952;HTU21D;61102;51.956;5.878;2023-06-22T06:25:20;26.63;47.96
72952;HTU21D;61102;51.956;5.878;2023-06-22T06:27:49;26.72;47.60
72952;HTU21D;61102;51.956;5.878;2023-06-22T06:30:17;26.80;47.36
72952;HTU21D;61102;51.956;5.878;2023-06-22T06:32:44;26.94;47.12
72952;HTU21D;61102;51.956;5.878;2023-06-22T06:35:12;26.99;46.64
72952;HTU21D;61102;51.956;5.878;2023-06-22T06:37:44;27.07;46.57
72952;HTU21D;61102;51.956;5.878;2023-06-22T06:40:12;27.15;46.48
72952;HTU21D;61102;51.956;5.878;2023-06-22T06:42:39;27.27;46.00
72952;HTU21D;61102;51.956;5.878;2023-06-22T06:45:08;27.32;45.65
72952;HTU21D;61102;51.956;5.878;2023-06-22T06:47:34;27.37;45.54
72952;HTU21D;61102;51.956;5.878;2023-06-22T06:50:00;27.35;45.35
72952;HTU21D;61102;51.956;5.878;2023-06-22T06:52:26;27.37;45.50
72952;HTU21D;61102;51.956;5.878;2023-06-22T06:54:53;27.49;45.54
72952;HTU21D;61102;51.956;5.878;2023-06-22T06:57:19;27.63;45.35
72952;HTU21D;61102;51.956;5.878;2023-06-22T06:59:46;28.25;43.90
72952;HTU21D;61102;51.956;5.878;2023-06-22T07:02:12;28.01;44.03
72952;HTU21D;61102;51.956;5.878;2023-06-22T07:04:38;27.87;44.51
72952;HTU21D;61102;51.956;5.878;2023-06-22T07:07:04;27.86;44.77
72952;HTU21D;61102;51.956;5.878;2023-06-22T07:09:30;27.84;44.65
72952;HTU21D;61102;51.956;5.878;2023-06-22T07:11:56;27.78;44.63
72952;HTU21D;61102;51.956;5.878;2023-06-22T07:14:22;27.75;44.86
72952;HTU21D;61102;51.956;5.878;2023-06-22T07:16:48;27.73;44.77
72952;HTU21D;61102;51.956;5.878;2023-06-22T07:19:14;27.74;44.66
72952;HTU21D;61102;51.956;5.878;2023-06-22T07:21:41;27.84;44.77
72952;HTU21D;61102;51.956;5.878;2023-06-22T07:24:07;27.96;44.60
72952;HTU21D;61102;51.956;5.878;2023-06-22T07:26:33;28.01;44.25
72952;HTU21D;61102;51.956;5.878;2023-06-22T07:29:00;28.06;44.36
72952;HTU21D;61102;51.956;5.878;2023-06-22T07:31:26;28.11;44.09
72952;HTU21D;61102;51.956;5.878;2023-06-22T07:33:52;28.05;44.15
72952;HTU21D;61102;51.956;5.878;2023-06-22T07:36:18;28.09;44.08
72952;HTU21D;61102;51.956;5.878;2023-06-22T07:38:44;28.17;43.90
72952;HTU21D;61102;51.956;5.878;2023-06-22T07:41:10;28.24;43.50
72952;HTU21D;61102;51.956;5.878;2023-06-22T07:43:36;28.27;43.48
72952;HTU21D;61102;51.956;5.878;2023-06-22T07:46:03;28.31;43.55
72952;HTU21D;61102;51.956;5.878;2023-06-22T07:48:29;28.84;42.32
72952;HTU21D;61102;51.956;5.878;2023-06-22T07:50:55;28.98;41.42
72952;HTU21D;61102;51.956;5.878;2023-06-22T07:53:21;28.62;42.36
72952;HTU21D;61102;51.956;5.878;2023-06-22T07:55:49;28.52;42.57
72952;HTU21D;61102;51.956;5.878;2023-06-22T07:58:15;28.48;42.59
72952;HTU21D;61102;51.956;5.878;2023-06-22T08:00:42;28.52;42.66
72952;HTU21D;61102;51.956;5.878;2023-06-22T08:03:08;28.56;42.38
72952;HTU21D;61102;51.956;5.878;2023-06-22T08:05:34;28.55;42.37
72952;HTU21D;61102;51.956;5.878;2023-06-22T08:08:00;28.60;42.42
72952;HTU21D;61102;51.956;5.878;2023-06-22T08:10:26;28.67;42.36
72952;HTU21D;61102;51.956;5.878;2023-06-22T08:12:52;28.77;42.25
72952;HTU21D;61102;51.956;5.878;2023-06-22T08:15:18;28.85;42.03
72952;HTU21D;61102;51.956;5.878;2023-06-22T08:17:45;28.89;41.84
72952;HTU21D;61102;51.956;5.878;2023-06-22T08:20:11;29.28;40.34
72952;HTU21D;61102;51.956;5.878;2023-06-22T08:22:42;29.02;40.71
72952;HTU21D;61102;51.956;5.878;2023-06-22T08:25:09;28.93;41.16
72952;HTU21D;61102;51.956;5.878;2023-06-22T08:27:36;28.98;41.03
72952;HTU21D;61102;51.956;5.878;2023-06-22T08:30:02;29.04;40.95
72952;HTU21D;61102;51.956;5.878;2023-06-22T08:32:29;29.09;40.73
72952;HTU21D;61102;51.956;5.878;2023-06-22T08:34:56;29.19;40.56
72952;HTU21D;61102;51.956;5.878;2023-06-22T08:37:23;29.45;40.20
72952;HTU21D;61102;51.956;5.878;2023-06-22T08:40:00;29.65;39.75
72952;HTU21D;61102;51.956;5.878;2023-06-22T08:42:36;29.82;39.21
72952;HTU21D;61102;51.956;5.878;2023-06-22T08:45:04;29.98;38.88
72952;HTU21D;61102;51.956;5.878;2023-06-22T08:47:30;30.10;38.52
72952;HTU21D;61102;51.956;5.878;2023-06-22T08:49:56;30.10;37.81
72952;HTU21D;61102;51.956;5.878;2023-06-22T08:52:22;30.00;37.87
72952;HTU21D;61102;51.956;5.878;2023-06-22T08:54:49;29.95;37.95
72952;HTU21D;61102;51.956;5.878;2023-06-22T09:00:24;29.93;38.40
72952;HTU21D;61102;51.956;5.878;2023-06-22T09:02:51;30.02;38.54
72952;HTU21D;61102;51.956;5.878;2023-06-22T09:05:17;30.10;38.02
72952;HTU21D;61102;51.956;5.878;2023-06-22T09:07:43;30.22;37.75
72952;HTU21D;61102;51.956;5.878;2023-06-22T09:10:10;30.33;37.28
72952;HTU21D;61102;51.956;5.878;2023-06-22T09:12:36;30.44;37.07
72952;HTU21D;61102;51.956;5.878;2023-06-22T09:15:05;30.57;36.59
72952;HTU21D;61102;51.956;5.878;2023-06-22T09:17:32;30.77;36.19
72952;HTU21D;61102;51.956;5.878;2023-06-22T09:19:59;30.78;36.35
72952;HTU21D;61102;51.956;5.878;2023-06-22T09:22:25;30.85;36.50
72952;HTU21D;61102;51.956;5.878;2023-06-22T09:24:55;30.86;35.98
72952;HTU21D;61102;51.956;5.878;2023-06-22T09:27:22;30.85;36.16
72952;HTU21D;61102;51.956;5.878;2023-06-22T09:29:49;30.93;36.33
72952;HTU21D;61102;51.956;5.878;2023-06-22T09:32:15;31.02;36.13
72952;HTU21D;61102;51.956;5.878;2023-06-22T09:34:41;30.97;35.29
72952;HTU21D;61102;51.956;5.878;2023-06-22T09:37:08;30.80;35.43
72952;HTU21D;61102;51.956;5.878;2023-06-22T09:39:34;30.63;35.40
72952;HTU21D;61102;51.956;5.878;2023-06-22T09:42:00;30.47;35.31
72952;HTU21D;61102;51.956;5.878;2023-06-22T09:44:33;30.36;35.35
72952;HTU21D;61102;51.956;5.878;2023-06-22T09:47:02;30.25;35.66
72952;HTU21D;61102;51.956;5.878;2023-06-22T09:49:28;30.28;35.43
72952;HTU21D;61102;51.956;5.878;2023-06-22T09:51:54;30.18;35.34
72952;HTU21D;61102;51.956;5.878;2023-06-22T09:54:21;30.12;34.82
72952;HTU21D;61102;51.956;5.878;2023-06-22T09:56:47;30.05;35.28
72952;HTU21D;61102;51.956;5.878;2023-06-22T09:59:13;30.02;35.55
72952;HTU21D;61102;51.956;5.878;2023-06-22T10:01:39;29.95;35.66
72952;HTU21D;61102;51.956;5.878;2023-06-22T10:04:06;29.87;35.85
72952;HTU21D;61102;51.956;5.878;2023-06-22T10:06:32;29.82;36.06
72952;HTU21D;61102;51.956;5.878;2023-06-22T10:08:58;29.68;35.74
72952;HTU21D;61102;51.956;5.878;2023-06-22T10:14:33;29.43;36.02
72952;HTU21D;61102;51.956;5.878;2023-06-22T10:16:59;29.34;36.36
72952;HTU21D;61102;51.956;5.878;2023-06-22T10:19:25;29.31;36.41
72952;HTU21D;61102;51.956;5.878;2023-06-22T10:21:51;29.30;36.63
72952;HTU21D;61102;51.956;5.878;2023-06-22T10:24:18;29.34;36.82
72952;HTU21D;61102;51.956;5.878;2023-06-22T10:26:44;29.39;36.99
72952;HTU21D;61102;51.956;5.878;2023-06-22T10:29:10;29.44;36.88
72952;HTU21D;61102;51.956;5.878;2023-06-22T10:31:36;29.44;36.74
72952;HTU21D;61102;51.956;5.878;2023-06-22T10:34:04;29.38;36.66
72952;HTU21D;61102;51.956;5.878;2023-06-22T10:36:30;29.42;36.49
72952;HTU21D;61102;51.956;5.878;2023-06-22T10:38:56;29.37;36.33
72952;HTU21D;61102;51.956;5.878;2023-06-22T10:41:25;29.37;36.34
72952;HTU21D;61102;51.956;5.878;2023-06-22T10:43:51;29.37;36.44
72952;HTU21D;61102;51.956;5.878;2023-06-22T10:46:17;29.42;36.47
72952;HTU21D;61102;51.956;5.878;2023-06-22T10:48:43;29.42;36.27
72952;HTU21D;61102;51.956;5.878;2023-06-22T10:51:09;29.43;36.50
72952;HTU21D;61102;51.956;5.878;2023-06-22T10:53:35;29.45;36.60
72952;HTU21D;61102;51.956;5.878;2023-06-22T10:56:01;29.41;36.89
72952;HTU21D;61102;51.956;5.878;2023-06-22T10:58:27;29.42;37.14
72952;HTU21D;61102;51.956;5.878;2023-06-22T11:00:53;29.44;37.30
72952;HTU21D;61102;51.956;5.878;2023-06-22T11:03:20;29.42;37.20
72952;HTU21D;61102;51.956;5.878;2023-06-22T11:05:46;29.34;37.28
72952;HTU21D;61102;51.956;5.878;2023-06-22T11:08:13;29.34;37.40
72952;HTU21D;61102;51.956;5.878;2023-06-22T11:10:40;29.33;37.35
72952;HTU21D;61102;51.956;5.878;2023-06-22T11:13:06;29.33;37.51
72952;HTU21D;61102;51.956;5.878;2023-06-22T11:15:36;29.39;37.39
72952;HTU21D;61102;51.956;5.878;2023-06-22T11:18:02;29.35;37.39
72952;HTU21D;61102;51.956;5.878;2023-06-22T11:20:34;29.24;37.40
72952;HTU21D;61102;51.956;5.878;2023-06-22T11:23:05;29.07;38.01
72952;HTU21D;61102;51.956;5.878;2023-06-22T11:25:34;28.76;39.03
72952;HTU21D;61102;51.956;5.878;2023-06-22T11:28:04;28.37;40.00
72952;HTU21D;61102;51.956;5.878;2023-06-22T11:30:30;28.00;41.21
72952;HTU21D;61102;51.956;5.878;2023-06-22T11:32:59;27.76;42.44
72952;HTU21D;61102;51.956;5.878;2023-06-22T11:35:38;27.46;43.45
72952;HTU21D;61102;51.956;5.878;2023-06-22T11:38:04;27.24;43.96
72952;HTU21D;61102;51.956;5.878;2023-06-22T11:40:31;27.05;45.07
72952;HTU21D;61102;51.956;5.878;2023-06-22T11:42:57;26.81;45.83
72952;HTU21D;61102;51.956;5.878;2023-06-22T11:45:23;26.57;46.47
72952;HTU21D;61102;51.956;5.878;2023-06-22T11:47:52;26.41;46.53
72952;HTU21D;61102;51.956;5.878;2023-06-22T11:50:18;26.35;46.52
72952;HTU21D;61102;51.956;5.878;2023-06-22T11:52:45;26.31;46.72
72952;HTU21D;61102;51.956;5.878;2023-06-22T11:55:11;26.18;47.69
72952;HTU21D;61102;51.956;5.878;2023-06-22T11:57:38;25.87;48.79
72952;HTU21D;61102;51.956;5.878;2023-06-22T12:00:05;25.59;51.13
72952;HTU21D;61102;51.956;5.878;2023-06-22T12:02:44;25.29;52.75
72952;HTU21D;61102;51.956;5.878;2023-06-22T12:05:11;25.03;53.75
72952;HTU21D;61102;51.956;5.878;2023-06-22T12:07:37;24.76;54.40
72952;HTU21D;61102;51.956;5.878;2023-06-22T12:10:03;24.57;55.00
72952;HTU21D;61102;51.956;5.878;2023-06-22T12:12:29;24.41;55.77
72952;HTU21D;61102;51.956;5.878;2023-06-22T12:14:55;24.27;56.46
72952;HTU21D;61102;51.956;5.878;2023-06-22T12:17:21;24.14;57.01
72952;HTU21D;61102;51.956;5.878;2023-06-22T12:19:47;23.98;57.58
72952;HTU21D;61102;51.956;5.878;2023-06-22T12:22:15;23.84;58.48
72952;HTU21D;61102;51.956;5.878;2023-06-22T12:24:41;23.73;59.16
72952;HTU21D;61102;51.956;5.878;2023-06-22T12:27:07;23.68;59.60
72952;HTU21D;61102;51.956;5.878;2023-06-22T12:29:34;23.68;59.99
72952;HTU21D;61102;51.956;5.878;2023-06-22T12:32:00;23.77;60.18
72952;HTU21D;61102;51.956;5.878;2023-06-22T12:34:26;23.82;60.39
72952;HTU21D;61102;51.956;5.878;2023-06-22T12:36:52;23.84;60.73
72952;HTU21D;61102;51.956;5.878;2023-06-22T12:39:20;23.86;60.93
72952;HTU21D;61102;51.956;5.878;2023-06-22T12:41:46;23.84;61.31
72952;HTU21D;61102;51.956;5.878;2023-06-22T12:44:12;23.82;61.40
72952;HTU21D;61102;51.956;5.878;2023-06-22T12:46:38;23.77;61.70
72952;HTU21D;61102;51.956;5.878;2023-06-22T12:49:04;23.73;62.06
72952;HTU21D;61102;51.956;5.878;2023-06-22T12:51:30;23.75;62.21
72952;HTU21D;61102;51.956;5.878;2023-06-22T12:53:57;23.73;62.38
72952;HTU21D;61102;51.956;5.878;2023-06-22T12:56:23;23.69;62.89
72952;HTU21D;61102;51.956;5.878;2023-06-22T12:58:49;23.61;63.27
72952;HTU21D;61102;51.956;5.878;2023-06-22T13:01:34;23.58;63.70
72952;HTU21D;61102;51.956;5.878;2023-06-22T13:04:00;23.56;63.92
72952;HTU21D;61102;51.956;5.878;2023-06-22T13:06:26;23.50;63.90
72952;HTU21D;61102;51.956;5.878;2023-06-22T13:08:52;23.43;64.11
72952;HTU21D;61102;51.956;5.878;2023-06-22T13:11:19;23.40;64.26
72952;HTU21D;61102;51.956;5.878;2023-06-22T13:13:45;23.40;64.58
72952;HTU21D;61102;51.956;5.878;2023-06-22T13:16:12;23.38;64.55
72952;HTU21D;61102;51.956;5.878;2023-06-22T13:18:38;23.34;64.57
72952;HTU21D;61102;51.956;5.878;2023-06-22T13:21:04;23.25;64.59
72952;HTU21D;61102;51.956;5.878;2023-06-22T13:23:31;23.14;64.82
72952;HTU21D;61102;51.956;5.878;2023-06-22T13:25:58;23.06;65.29
72952;HTU21D;61102;51.956;5.878;2023-06-22T13:28:24;22.98;65.38
72952;HTU21D;61102;51.956;5.878;2023-06-22T13:30:50;22.93;65.70
72952;HTU21D;61102;51.956;5.878;2023-06-22T13:33:16;22.90;66.27
72952;HTU21D;61102;51.956;5.878;2023-06-22T13:35:42;22.80;66.53
72952;HTU21D;61102;51.956;5.878;2023-06-22T13:38:09;22.66;67.02
72952;HTU21D;61102;51.956;5.878;2023-06-22T13:40:36;22.55;67.43
72952;HTU21D;61102;51.956;5.878;2023-06-22T13:43:04;22.49;67.79
72952;HTU21D;61102;51.956;5.878;2023-06-22T13:45:31;22.43;68.10
72952;HTU21D;61102;51.956;5.878;2023-06-22T13:47:57;22.40;68.09
72952;HTU21D;61102;51.956;5.878;2023-06-22T13:50:23;22.35;68.54
72952;HTU21D;61102;51.956;5.878;2023-06-22T13:52:49;22.31;68.58
72952;HTU21D;61102;51.956;5.878;2023-06-22T13:55:15;22.26;68.81
72952;HTU21D;61102;51.956;5.878;2023-06-22T13:57:42;22.21;69.02
72952;HTU21D;61102;51.956;5.878;2023-06-22T14:00:09;22.21;69.08
72952;HTU21D;61102;51.956;5.878;2023-06-22T14:02:38;22.20;69.10
72952;HTU21D;61102;51.956;5.878;2023-06-22T14:05:05;22.62;68.34
72952;HTU21D;61102;51.956;5.878;2023-06-22T14:10:03;22.34;69.08
72952;HTU21D;61102;51.956;5.878;2023-06-22T14:12:30;22.23;69.68
72952;HTU21D;61102;51.956;5.878;2023-06-22T14:14:56;22.19;69.96
72952;HTU21D;61102;51.956;5.878;2023-06-22T14:17:23;22.68;68.89
72952;HTU21D;61102;51.956;5.878;2023-06-22T14:19:52;22.34;69.78
72952;HTU21D;61102;51.956;5.878;2023-06-22T14:22:19;22.25;70.16
72952;HTU21D;61102;51.956;5.878;2023-06-22T14:24:45;22.68;68.84
72952;HTU21D;61102;51.956;5.878;2023-06-22T14:27:11;22.33;69.75
72952;HTU21D;61102;51.956;5.878;2023-06-22T14:29:37;22.23;70.27
72952;HTU21D;61102;51.956;5.878;2023-06-22T14:32:04;22.18;70.44
72952;HTU21D;61102;51.956;5.878;2023-06-22T14:34:32;22.16;70.45
72952;HTU21D;61102;51.956;5.878;2023-06-22T14:37:08;22.17;70.84
72952;HTU21D;61102;51.956;5.878;2023-06-22T14:39:38;22.16;70.61
72952;HTU21D;61102;51.956;5.878;2023-06-22T14:42:05;22.13;70.82
72952;HTU21D;61102;51.956;5.878;2023-06-22T14:44:32;22.12;70.97
72952;HTU21D;61102;51.956;5.878;2023-06-22T14:46:58;22.10;70.92
72952;HTU21D;61102;51.956;5.878;2023-06-22T14:49:24;22.10;70.91
72952;HTU21D;61102;51.956;5.878;2023-06-22T14:51:50;22.07;71.09
72952;HTU21D;61102;51.956;5.878;2023-06-22T14:54:16;22.08;71.23
72952;HTU21D;61102;51.956;5.878;2023-06-22T14:56:42;22.08;71.25
72952;HTU21D;61102;51.956;5.878;2023-06-22T14:59:09;22.11;71.41
72952;HTU21D;61102;51.956;5.878;2023-06-22T15:01:35;22.13;71.37
72952;HTU21D;61102;51.956;5.878;2023-06-22T15:04:01;22.12;71.36
72952;HTU21D;61102;51.956;5.878;2023-06-22T15:06:28;22.10;71.10
72952;HTU21D;61102;51.956;5.878;2023-06-22T15:08:54;21.98;70.71
72952;HTU21D;61102;51.956;5.878;2023-06-22T15:11:20;21.83;70.78
72952;HTU21D;61102;51.956;5.878;2023-06-22T15:13:47;21.75;71.04
72952;HTU21D;61102;51.956;5.878;2023-06-22T15:16:13;21.68;71.38
72952;HTU21D;61102;51.956;5.878;2023-06-22T15:18:39;21.63;71.45
72952;HTU21D;61102;51.956;5.878;2023-06-22T15:21:06;22.05;70.16
72952;HTU21D;61102;51.956;5.878;2023-06-22T15:23:33;21.67;71.17
72952;HTU21D;61102;51.956;5.878;2023-06-22T15:26:01;21.59;71.81
72952;HTU21D;61102;51.956;5.878;2023-06-22T15:28:28;21.59;72.05
72952;HTU21D;61102;51.956;5.878;2023-06-22T15:30:54;21.59;71.87
72952;HTU21D;61102;51.956;5.878;2023-06-22T15:33:20;21.58;72.09
72952;HTU21D;61102;51.956;5.878;2023-06-22T15:35:46;21.54;72.18